Terminal Aerodrome Forecast
Issued by NWS

Home | Current Version | Previous Version | Text Only | Print | Product List | Glossary On
Versions: 1 2 3 4 5 6 7 8 9 10 11 12 13 14 15 16
720
FTUS43 KEAX 211128
TAFSTJ
TAF
KSTJ 211128Z 2112/2212 36010KT P6SM FEW250
     FM220000 05009KT P6SM BKN100
     FM220400 06009KT P6SM VCSH OVC060
     FM220500 06009KT 5SM -SNPL OVC030
     FM221000 06009KT 5SM -FZRAPL OVC010=

USA.gov is the U.S. government's official web portal to all federal, state and local government web resources and services.